Αρχική σελίδα
METAR-TAF:

METAR-TAF

Αεροδρόμια :

Πόλη του Κουβέιτ, Κουβέιτ

γεωγραφικό πλάτος: 29-13N, γεωγραφικό μήκος: 047-59E, υψόμετρο: 55 μ

Παρών καιρός

Η αναφορά έγινε 16 λεπτά πριν, στις 05:00 UTC
Άνεμος 7 kt από
Θερμοκρασία 35°C
Υγρασία 18%
Πίεση 1009 hPa
Ορατότητα: 3000 μ
Καθαρός ουρανός
(ασθενής) εκτεταμένη σκόνη

METAR: OKBK 230500Z 32007KT 3000 -DU SKC 35/07 Q1009 NOSIG

Χρόνος: 08:16 (05:16 UTC)

Πρόγνωση Καιρού

Η αναφορά έγινε 6 ώρες και 31 λεπτά πριν, στις 22:45 UTC
Η πρόγνωση ισχύει από τις 23 στις 00 UTC έως τις 24 στις 06 UTC
Άνεμος 3 kt από μεταβλητές κατευθύνσεις
Ορατότητα: 6000 μ
Προσωρινά
από 23 στις 00 UTC έως τις 23 στις 05 UTC
Ορατότητα: 4000 μ
καταχνιά
Καθιστάμενος
από 23 στις 05 UTC έως τις 23 στις 07 UTC
Άνεμος 10 kt από Β

TAF: OKBK 222245Z 2300/2406 VRB03KT 6000 NSC TEMPO 2300/2305 4000 HZ BECMG 2305/2307 35010KT

Μετεωρολογικές αναφορές και προγνώσεις για περισσότερα από 4000 αεροδρόμια (δελτία METAR και TAF).

Οι διαθέσιμοι σταθμοί απεικονίζονται στο χάρτη με κίτρινες και κόκκινες κουκκίδες.

Μετακινήστε το ποντίκι πάνω από τις κουκκίδες για να δείτε το όνομα του σταθμού.

Στη συνέχεια, κάντε κλικ για να δείτε τις μετεωρολογικές αναφορές και τις προγνώσεις καιρού.

Για να αλλάξετε το χάρτη: κάντε κλικ στα πράσινα κουμπιά με τον μαύρο σταυρό για να ζουμάρετε, στο πράσινο κουμπί με την παύλα για να αφαιρέσετε το ζουμ ή στα πράσινα βέλη για να αντιπαραβάλλετε χάρτες.


METAR-TAF: